sensor_id;sensor_type;location;lat;lon;timestamp;P1;durP1;ratioP1;P2;durP2;ratioP2
9128;SDS011;4599;50.906;6.786;2023-01-09T00:01:35;0.30;;;0.30;;
9128;SDS011;4599;50.906;6.786;2023-01-09T00:05:37;0.93;;;0.30;;
9128;SDS011;4599;50.906;6.786;2023-01-09T00:09:40;0.87;;;0.40;;
9128;SDS011;4599;50.906;6.786;2023-01-09T00:13:42;0.13;;;0.13;;
9128;SDS011;4599;50.906;6.786;2023-01-09T00:17:43;0.30;;;0.30;;
9128;SDS011;4599;50.906;6.786;2023-01-09T00:21:45;0.97;;;0.20;;
9128;SDS011;4599;50.906;6.786;2023-01-09T00:25:48;0.63;;;0.20;;
9128;SDS011;4599;50.906;6.786;2023-01-09T00:29:49;0.63;;;0.33;;
9128;SDS011;4599;50.906;6.786;2023-01-09T00:33:53;0.30;;;0.30;;
9128;SDS011;4599;50.906;6.786;2023-01-09T00:37:56;0.73;;;0.17;;
9128;SDS011;4599;50.906;6.786;2023-01-09T00:41:59;0.67;;;0.20;;
9128;SDS011;4599;50.906;6.786;2023-01-09T00:46:01;0.30;;;0.30;;
9128;SDS011;4599;50.906;6.786;2023-01-09T00:50:06;0.20;;;0.20;;
9128;SDS011;4599;50.906;6.786;2023-01-09T00:54:12;0.20;;;0.20;;
9128;SDS011;4599;50.906;6.786;2023-01-09T00:58:17;0.20;;;0.20;;
9128;SDS011;4599;50.906;6.786;2023-01-09T01:02:19;0.47;;;0.30;;
9128;SDS011;4599;50.906;6.786;2023-01-09T01:06:21;0.23;;;0.23;;
9128;SDS011;4599;50.906;6.786;2023-01-09T01:10:23;0.30;;;0.30;;
9128;SDS011;4599;50.906;6.786;2023-01-09T01:14:27;0.40;;;0.20;;
9128;SDS011;4599;50.906;6.786;2023-01-09T01:18:29;0.60;;;0.20;;
9128;SDS011;4599;50.906;6.786;2023-01-09T01:22:30;0.20;;;0.20;;
9128;SDS011;4599;50.906;6.786;2023-01-09T01:26:32;0.10;;;0.10;;
9128;SDS011;4599;50.906;6.786;2023-01-09T01:30:37;1.37;;;0.27;;
9128;SDS011;4599;50.906;6.786;2023-01-09T01:34:39;0.70;;;0.40;;
9128;SDS011;4599;50.906;6.786;2023-01-09T01:38:41;0.10;;;0.10;;
9128;SDS011;4599;50.906;6.786;2023-01-09T01:42:47;0.10;;;0.10;;
9128;SDS011;4599;50.906;6.786;2023-01-09T01:46:51;0.20;;;0.10;;
9128;SDS011;4599;50.906;6.786;2023-01-09T01:50:54;0.87;;;0.50;;
9128;SDS011;4599;50.906;6.786;2023-01-09T01:54:59;0.17;;;0.17;;
9128;SDS011;4599;50.906;6.786;2023-01-09T01:59:02;0.43;;;0.40;;
9128;SDS011;4599;50.906;6.786;2023-01-09T02:03:09;0.60;;;0.30;;
9128;SDS011;4599;50.906;6.786;2023-01-09T02:07:14;0.40;;;0.30;;
9128;SDS011;4599;50.906;6.786;2023-01-09T02:11:16;0.40;;;0.33;;
9128;SDS011;4599;50.906;6.786;2023-01-09T02:15:20;0.60;;;0.33;;
9128;SDS011;4599;50.906;6.786;2023-01-09T02:24:00;0.40;;;0.40;;
9128;SDS011;4599;50.906;6.786;2023-01-09T02:28:22;0.50;;;0.30;;
9128;SDS011;4599;50.906;6.786;2023-01-09T02:32:43;0.43;;;0.30;;
9128;SDS011;4599;50.906;6.786;2023-01-09T02:36:53;0.40;;;0.40;;
9128;SDS011;4599;50.906;6.786;2023-01-09T02:41:03;1.20;;;0.40;;
9128;SDS011;4599;50.906;6.786;2023-01-09T02:45:13;1.00;;;0.50;;
9128;SDS011;4599;50.906;6.786;2023-01-09T02:49:16;2.47;;;0.50;;
9128;SDS011;4599;50.906;6.786;2023-01-09T02:53:31;4.07;;;0.73;;
9128;SDS011;4599;50.906;6.786;2023-01-09T02:57:53;2.80;;;0.77;;
9128;SDS011;4599;50.906;6.786;2023-01-09T03:02:07;0.40;;;0.40;;
9128;SDS011;4599;50.906;6.786;2023-01-09T03:06:26;0.50;;;0.50;;
9128;SDS011;4599;50.906;6.786;2023-01-09T03:10:34;3.00;;;0.70;;
9128;SDS011;4599;50.906;6.786;2023-01-09T03:14:41;1.60;;;0.50;;
9128;SDS011;4599;50.906;6.786;2023-01-09T03:18:48;1.77;;;0.57;;
9128;SDS011;4599;50.906;6.786;2023-01-09T03:22:54;4.07;;;0.70;;
9128;SDS011;4599;50.906;6.786;2023-01-09T03:26:56;1.67;;;0.70;;
9128;SDS011;4599;50.906;6.786;2023-01-09T03:30:57;1.07;;;0.60;;
9128;SDS011;4599;50.906;6.786;2023-01-09T03:34:59;2.23;;;0.93;;
9128;SDS011;4599;50.906;6.786;2023-01-09T03:39:02;4.00;;;0.93;;
9128;SDS011;4599;50.906;6.786;2023-01-09T03:43:03;2.03;;;0.87;;
9128;SDS011;4599;50.906;6.786;2023-01-09T03:47:05;2.20;;;0.67;;
9128;SDS011;4599;50.906;6.786;2023-01-09T03:51:07;4.30;;;1.03;;
9128;SDS011;4599;50.906;6.786;2023-01-09T03:55:10;5.17;;;0.87;;
9128;SDS011;4599;50.906;6.786;2023-01-09T03:59:11;2.47;;;0.80;;
9128;SDS011;4599;50.906;6.786;2023-01-09T04:03:13;3.10;;;1.00;;
9128;SDS011;4599;50.906;6.786;2023-01-09T04:07:16;1.20;;;0.60;;
9128;SDS011;4599;50.906;6.786;2023-01-09T04:11:19;4.73;;;1.13;;
9128;SDS011;4599;50.906;6.786;2023-01-09T04:15:21;6.17;;;1.00;;
9128;SDS011;4599;50.906;6.786;2023-01-09T04:19:23;4.50;;;0.90;;
9128;SDS011;4599;50.906;6.786;2023-01-09T04:23:24;3.50;;;1.07;;
9128;SDS011;4599;50.906;6.786;2023-01-09T04:27:27;6.90;;;1.20;;
9128;SDS011;4599;50.906;6.786;2023-01-09T04:31:29;3.40;;;0.70;;
9128;SDS011;4599;50.906;6.786;2023-01-09T04:35:30;2.80;;;0.83;;
9128;SDS011;4599;50.906;6.786;2023-01-09T04:39:32;1.93;;;0.97;;
9128;SDS011;4599;50.906;6.786;2023-01-09T04:43:35;5.13;;;0.80;;
9128;SDS011;4599;50.906;6.786;2023-01-09T04:47:36;9.07;;;1.10;;
9128;SDS011;4599;50.906;6.786;2023-01-09T04:51:38;3.80;;;0.90;;
9128;SDS011;4599;50.906;6.786;2023-01-09T04:55:40;2.73;;;1.10;;
9128;SDS011;4599;50.906;6.786;2023-01-09T04:59:43;4.03;;;1.03;;
9128;SDS011;4599;50.906;6.786;2023-01-09T05:03:45;2.90;;;1.10;;
9128;SDS011;4599;50.906;6.786;2023-01-09T05:07:46;5.77;;;1.23;;
9128;SDS011;4599;50.906;6.786;2023-01-09T05:11:48;4.30;;;1.03;;
9128;SDS011;4599;50.906;6.786;2023-01-09T05:15:51;3.00;;;0.97;;
9128;SDS011;4599;50.906;6.786;2023-01-09T05:19:52;6.03;;;1.00;;
9128;SDS011;4599;50.906;6.786;2023-01-09T05:23:54;3.50;;;0.90;;
9128;SDS011;4599;50.906;6.786;2023-01-09T05:27:55;3.30;;;0.87;;
9128;SDS011;4599;50.906;6.786;2023-01-09T05:31:58;3.80;;;1.10;;
9128;SDS011;4599;50.906;6.786;2023-01-09T05:36:00;3.10;;;1.17;;
9128;SDS011;4599;50.906;6.786;2023-01-09T05:40:02;5.53;;;1.10;;
9128;SDS011;4599;50.906;6.786;2023-01-09T05:44:04;3.17;;;1.10;;
9128;SDS011;4599;50.906;6.786;2023-01-09T05:48:08;4.93;;;1.40;;
9128;SDS011;4599;50.906;6.786;2023-01-09T05:52:09;3.43;;;1.27;;
9128;SDS011;4599;50.906;6.786;2023-01-09T05:56:11;5.27;;;1.10;;
9128;SDS011;4599;50.906;6.786;2023-01-09T06:00:13;2.20;;;0.93;;
9128;SDS011;4599;50.906;6.786;2023-01-09T06:04:16;3.37;;;1.03;;
9128;SDS011;4599;50.906;6.786;2023-01-09T06:08:18;4.20;;;1.07;;
9128;SDS011;4599;50.906;6.786;2023-01-09T06:12:19;4.80;;;1.17;;
9128;SDS011;4599;50.906;6.786;2023-01-09T06:16:21;3.63;;;1.20;;
9128;SDS011;4599;50.906;6.786;2023-01-09T06:20:24;1.63;;;0.83;;
9128;SDS011;4599;50.906;6.786;2023-01-09T06:24:25;4.17;;;1.10;;
9128;SDS011;4599;50.906;6.786;2023-01-09T06:28:27;2.43;;;0.97;;
9128;SDS011;4599;50.906;6.786;2023-01-09T06:32:29;3.70;;;1.00;;
9128;SDS011;4599;50.906;6.786;2023-01-09T06:36:31;2.37;;;0.90;;
9128;SDS011;4599;50.906;6.786;2023-01-09T06:40:33;2.70;;;1.00;;
9128;SDS011;4599;50.906;6.786;2023-01-09T06:44:34;1.10;;;1.00;;
9128;SDS011;4599;50.906;6.786;2023-01-09T06:48:36;4.60;;;1.13;;
9128;SDS011;4599;50.906;6.786;2023-01-09T06:52:39;2.07;;;0.90;;
9128;SDS011;4599;50.906;6.786;2023-01-09T06:56:41;2.13;;;0.90;;
9128;SDS011;4599;50.906;6.786;2023-01-09T07:00:42;3.80;;;0.93;;
9128;SDS011;4599;50.906;6.786;2023-01-09T07:04:44;3.77;;;1.23;;
9128;SDS011;4599;50.906;6.786;2023-01-09T07:08:47;1.90;;;0.87;;
9128;SDS011;4599;50.906;6.786;2023-01-09T07:12:48;1.50;;;1.27;;
9128;SDS011;4599;50.906;6.786;2023-01-09T07:16:50;2.17;;;1.37;;
9128;SDS011;4599;50.906;6.786;2023-01-09T07:20:51;1.93;;;1.00;;
9128;SDS011;4599;50.906;6.786;2023-01-09T07:24:54;1.50;;;0.83;;
9128;SDS011;4599;50.906;6.786;2023-01-09T07:28:56;1.50;;;0.83;;
9128;SDS011;4599;50.906;6.786;2023-01-09T07:32:57;2.23;;;0.93;;
9128;SDS011;4599;50.906;6.786;2023-01-09T07:36:59;2.70;;;1.00;;
9128;SDS011;4599;50.906;6.786;2023-01-09T07:41:02;1.43;;;0.80;;
9128;SDS011;4599;50.906;6.786;2023-01-09T07:45:04;2.67;;;0.80;;
9128;SDS011;4599;50.906;6.786;2023-01-09T07:49:06;2.17;;;0.97;;
9128;SDS011;4599;50.906;6.786;2023-01-09T07:53:08;3.70;;;0.73;;
9128;SDS011;4599;50.906;6.786;2023-01-09T07:57:11;2.90;;;1.10;;
9128;SDS011;4599;50.906;6.786;2023-01-09T08:01:12;1.60;;;0.90;;
9128;SDS011;4599;50.906;6.786;2023-01-09T08:05:14;3.87;;;1.13;;
9128;SDS011;4599;50.906;6.786;2023-01-09T08:09:16;5.60;;;1.17;;
9128;SDS011;4599;50.906;6.786;2023-01-09T08:13:18;4.93;;;1.17;;
9128;SDS011;4599;50.906;6.786;2023-01-09T08:17:20;2.93;;;1.07;;
9128;SDS011;4599;50.906;6.786;2023-01-09T08:21:21;3.97;;;1.27;;
9128;SDS011;4599;50.906;6.786;2023-01-09T08:25:23;2.50;;;1.10;;
9128;SDS011;4599;50.906;6.786;2023-01-09T08:29:26;5.10;;;1.20;;
9128;SDS011;4599;50.906;6.786;2023-01-09T08:33:28;3.00;;;1.30;;
9128;SDS011;4599;50.906;6.786;2023-01-09T08:37:30;4.40;;;1.00;;
9128;SDS011;4599;50.906;6.786;2023-01-09T08:41:31;3.63;;;1.00;;
9128;SDS011;4599;50.906;6.786;2023-01-09T08:45:34;3.47;;;1.10;;
9128;SDS011;4599;50.906;6.786;2023-01-09T08:49:36;1.90;;;0.80;;
9128;SDS011;4599;50.906;6.786;2023-01-09T08:53:38;2.60;;;1.07;;
9128;SDS011;4599;50.906;6.786;2023-01-09T08:57:45;2.47;;;0.87;;
9128;SDS011;4599;50.906;6.786;2023-01-09T09:01:49;1.57;;;1.03;;
9128;SDS011;4599;50.906;6.786;2023-01-09T09:05:50;3.53;;;1.00;;
9128;SDS011;4599;50.906;6.786;2023-01-09T09:09:52;1.90;;;1.00;;
9128;SDS011;4599;50.906;6.786;2023-01-09T09:13:54;5.00;;;1.00;;
9128;SDS011;4599;50.906;6.786;2023-01-09T09:17:57;2.83;;;0.90;;
9128;SDS011;4599;50.906;6.786;2023-01-09T09:22:00;5.27;;;1.30;;
9128;SDS011;4599;50.906;6.786;2023-01-09T09:26:01;1.70;;;0.90;;
9128;SDS011;4599;50.906;6.786;2023-01-09T09:30:03;1.17;;;0.90;;
9128;SDS011;4599;50.906;6.786;2023-01-09T09:34:07;3.40;;;0.87;;
9128;SDS011;4599;50.906;6.786;2023-01-09T09:38:09;2.93;;;0.90;;
9128;SDS011;4599;50.906;6.786;2023-01-09T09:42:16;1.67;;;0.90;;
9128;SDS011;4599;50.906;6.786;2023-01-09T09:46:40;1.63;;;0.60;;
9128;SDS011;4599;50.906;6.786;2023-01-09T09:51:11;1.60;;;0.57;;
9128;SDS011;4599;50.906;6.786;2023-01-09T09:55:32;3.57;;;0.70;;
9128;SDS011;4599;50.906;6.786;2023-01-09T09:59:35;1.20;;;0.50;;
9128;SDS011;4599;50.906;6.786;2023-01-09T10:03:44;5.23;;;0.90;;
9128;SDS011;4599;50.906;6.786;2023-01-09T10:07:49;2.03;;;0.80;;
9128;SDS011;4599;50.906;6.786;2023-01-09T10:11:53;2.47;;;0.70;;
9128;SDS011;4599;50.906;6.786;2023-01-09T10:16:00;1.47;;;0.57;;
9128;SDS011;4599;50.906;6.786;2023-01-09T10:20:20;1.30;;;0.63;;
9128;SDS011;4599;50.906;6.786;2023-01-09T10:24:48;2.57;;;0.70;;
9128;SDS011;4599;50.906;6.786;2023-01-09T10:29:02;1.27;;;0.70;;
9128;SDS011;4599;50.906;6.786;2023-01-09T10:33:15;1.63;;;0.67;;
9128;SDS011;4599;50.906;6.786;2023-01-09T10:37:27;1.57;;;0.77;;
9128;SDS011;4599;50.906;6.786;2023-01-09T10:41:33;1.93;;;0.67;;
9128;SDS011;4599;50.906;6.786;2023-01-09T10:45:40;3.57;;;0.80;;
9128;SDS011;4599;50.906;6.786;2023-01-09T10:49:44;1.13;;;0.73;;
9128;SDS011;4599;50.906;6.786;2023-01-09T10:53:48;2.17;;;0.80;;
9128;SDS011;4599;50.906;6.786;2023-01-09T10:57:56;1.50;;;0.70;;
9128;SDS011;4599;50.906;6.786;2023-01-09T11:02:00;0.73;;;0.60;;
9128;SDS011;4599;50.906;6.786;2023-01-09T11:06:01;4.30;;;0.77;;
9128;SDS011;4599;50.906;6.786;2023-01-09T11:10:04;2.70;;;0.70;;
9128;SDS011;4599;50.906;6.786;2023-01-09T11:14:14;2.20;;;0.93;;
9128;SDS011;4599;50.906;6.786;2023-01-09T11:18:18;0.67;;;0.47;;
9128;SDS011;4599;50.906;6.786;2023-01-09T11:22:22;3.13;;;0.87;;
9128;SDS011;4599;50.906;6.786;2023-01-09T11:26:24;2.70;;;0.70;;
9128;SDS011;4599;50.906;6.786;2023-01-09T11:30:28;4.60;;;0.97;;
9128;SDS011;4599;50.906;6.786;2023-01-09T11:34:31;1.03;;;0.60;;
9128;SDS011;4599;50.906;6.786;2023-01-09T11:38:43;0.93;;;0.60;;
9128;SDS011;4599;50.906;6.786;2023-01-09T11:43:00;2.70;;;0.80;;
9128;SDS011;4599;50.906;6.786;2023-01-09T11:47:23;2.43;;;0.80;;
9128;SDS011;4599;50.906;6.786;2023-01-09T11:51:37;1.13;;;0.40;;
9128;SDS011;4599;50.906;6.786;2023-01-09T11:55:38;0.60;;;0.50;;
9128;SDS011;4599;50.906;6.786;2023-01-09T11:59:43;0.43;;;0.40;;
9128;SDS011;4599;50.906;6.786;2023-01-09T12:03:53;1.67;;;0.53;;
9128;SDS011;4599;50.906;6.786;2023-01-09T12:08:18;3.17;;;0.60;;
9128;SDS011;4599;50.906;6.786;2023-01-09T12:12:34;0.93;;;0.40;;
9128;SDS011;4599;50.906;6.786;2023-01-09T12:16:52;1.77;;;0.60;;
9128;SDS011;4599;50.906;6.786;2023-01-09T12:21:25;1.53;;;0.40;;
9128;SDS011;4599;50.906;6.786;2023-01-09T12:25:36;0.83;;;0.70;;
9128;SDS011;4599;50.906;6.786;2023-01-09T12:29:57;1.77;;;0.80;;
9128;SDS011;4599;50.906;6.786;2023-01-09T12:34:25;1.47;;;0.67;;
9128;SDS011;4599;50.906;6.786;2023-01-09T12:38:49;2.73;;;0.50;;
9128;SDS011;4599;50.906;6.786;2023-01-09T12:42:56;3.40;;;0.73;;
9128;SDS011;4599;50.906;6.786;2023-01-09T12:47:10;0.60;;;0.50;;
9128;SDS011;4599;50.906;6.786;2023-01-09T12:51:30;1.77;;;0.90;;
9128;SDS011;4599;50.906;6.786;2023-01-09T12:55:39;1.47;;;0.70;;
9128;SDS011;4599;50.906;6.786;2023-01-09T12:59:46;2.10;;;1.03;;
9128;SDS011;4599;50.906;6.786;2023-01-09T13:03:52;1.83;;;0.80;;
9128;SDS011;4599;50.906;6.786;2023-01-09T13:08:03;2.13;;;0.80;;
9128;SDS011;4599;50.906;6.786;2023-01-09T13:12:11;1.10;;;0.80;;
9128;SDS011;4599;50.906;6.786;2023-01-09T13:16:16;3.10;;;0.90;;
9128;SDS011;4599;50.906;6.786;2023-01-09T13:20:24;2.40;;;1.07;;
9128;SDS011;4599;50.906;6.786;2023-01-09T13:24:34;1.80;;;1.10;;
9128;SDS011;4599;50.906;6.786;2023-01-09T13:28:41;2.20;;;1.00;;
9128;SDS011;4599;50.906;6.786;2023-01-09T13:32:49;3.17;;;0.90;;
9128;SDS011;4599;50.906;6.786;2023-01-09T13:36:55;1.50;;;0.80;;
9128;SDS011;4599;50.906;6.786;2023-01-09T13:41:05;2.90;;;1.20;;
9128;SDS011;4599;50.906;6.786;2023-01-09T13:45:18;5.30;;;1.30;;
9128;SDS011;4599;50.906;6.786;2023-01-09T13:54:08;2.73;;;1.10;;
9128;SDS011;4599;50.906;6.786;2023-01-09T13:58:20;2.60;;;1.00;;
9128;SDS011;4599;50.906;6.786;2023-01-09T14:07:13;3.47;;;1.40;;
9128;SDS011;4599;50.906;6.786;2023-01-09T14:11:20;4.77;;;1.10;;
9128;SDS011;4599;50.906;6.786;2023-01-09T14:15:24;1.73;;;0.90;;
9128;SDS011;4599;50.906;6.786;2023-01-09T14:19:34;4.83;;;1.63;;
9128;SDS011;4599;50.906;6.786;2023-01-09T14:23:38;7.10;;;1.43;;
9128;SDS011;4599;50.906;6.786;2023-01-09T14:28:03;3.10;;;1.00;;
9128;SDS011;4599;50.906;6.786;2023-01-09T14:32:41;3.43;;;1.20;;
9128;SDS011;4599;50.906;6.786;2023-01-09T14:36:44;4.23;;;1.20;;
9128;SDS011;4599;50.906;6.786;2023-01-09T14:40:47;3.90;;;1.20;;
9128;SDS011;4599;50.906;6.786;2023-01-09T14:44:54;4.47;;;1.43;;
9128;SDS011;4599;50.906;6.786;2023-01-09T14:49:02;4.70;;;1.53;;
9128;SDS011;4599;50.906;6.786;2023-01-09T14:53:10;4.00;;;1.40;;
9128;SDS011;4599;50.906;6.786;2023-01-09T14:57:21;4.57;;;1.30;;
9128;SDS011;4599;50.906;6.786;2023-01-09T15:01:24;6.43;;;1.60;;
9128;SDS011;4599;50.906;6.786;2023-01-09T15:05:26;4.30;;;1.47;;
9128;SDS011;4599;50.906;6.786;2023-01-09T15:09:29;3.23;;;1.33;;
9128;SDS011;4599;50.906;6.786;2023-01-09T15:13:34;2.70;;;1.10;;
9128;SDS011;4599;50.906;6.786;2023-01-09T15:17:43;3.23;;;1.23;;
9128;SDS011;4599;50.906;6.786;2023-01-09T15:21:57;2.77;;;1.13;;
9128;SDS011;4599;50.906;6.786;2023-01-09T15:26:12;4.97;;;1.20;;
9128;SDS011;4599;50.906;6.786;2023-01-09T15:30:23;4.00;;;1.10;;
9128;SDS011;4599;50.906;6.786;2023-01-09T15:34:27;3.87;;;1.23;;
9128;SDS011;4599;50.906;6.786;2023-01-09T15:38:30;5.67;;;1.90;;
9128;SDS011;4599;50.906;6.786;2023-01-09T15:42:35;2.97;;;1.40;;
9128;SDS011;4599;50.906;6.786;2023-01-09T15:46:38;7.03;;;1.83;;
9128;SDS011;4599;50.906;6.786;2023-01-09T15:50:40;7.30;;;1.37;;
9128;SDS011;4599;50.906;6.786;2023-01-09T15:54:44;8.20;;;1.67;;
9128;SDS011;4599;50.906;6.786;2023-01-09T15:58:47;6.80;;;1.80;;
9128;SDS011;4599;50.906;6.786;2023-01-09T16:02:50;8.10;;;1.63;;
9128;SDS011;4599;50.906;6.786;2023-01-09T16:06:51;3.63;;;1.60;;
9128;SDS011;4599;50.906;6.786;2023-01-09T16:10:54;2.33;;;1.43;;
9128;SDS011;4599;50.906;6.786;2023-01-09T16:15:00;4.83;;;1.20;;
9128;SDS011;4599;50.906;6.786;2023-01-09T16:19:02;4.50;;;1.30;;
9128;SDS011;4599;50.906;6.786;2023-01-09T16:23:16;6.33;;;1.40;;
9128;SDS011;4599;50.906;6.786;2023-01-09T16:27:21;5.13;;;1.23;;
9128;SDS011;4599;50.906;6.786;2023-01-09T16:31:26;4.23;;;1.40;;
9128;SDS011;4599;50.906;6.786;2023-01-09T16:35:29;5.83;;;1.50;;
9128;SDS011;4599;50.906;6.786;2023-01-09T16:39:31;4.50;;;1.43;;
9128;SDS011;4599;50.906;6.786;2023-01-09T16:43:32;4.80;;;1.60;;
9128;SDS011;4599;50.906;6.786;2023-01-09T16:47:35;5.10;;;1.37;;
9128;SDS011;4599;50.906;6.786;2023-01-09T16:51:37;6.17;;;1.50;;
9128;SDS011;4599;50.906;6.786;2023-01-09T16:55:38;4.37;;;1.50;;
9128;SDS011;4599;50.906;6.786;2023-01-09T16:59:40;5.10;;;1.60;;
9128;SDS011;4599;50.906;6.786;2023-01-09T17:03:43;3.90;;;1.50;;
9128;SDS011;4599;50.906;6.786;2023-01-09T17:07:45;6.33;;;2.00;;
9128;SDS011;4599;50.906;6.786;2023-01-09T17:11:46;5.00;;;1.83;;
9128;SDS011;4599;50.906;6.786;2023-01-09T17:15:48;4.47;;;1.47;;
9128;SDS011;4599;50.906;6.786;2023-01-09T17:19:52;5.77;;;1.57;;
9128;SDS011;4599;50.906;6.786;2023-01-09T17:23:53;5.40;;;1.60;;
9128;SDS011;4599;50.906;6.786;2023-01-09T17:27:55;6.43;;;1.73;;
9128;SDS011;4599;50.906;6.786;2023-01-09T17:31:57;9.63;;;1.93;;
9128;SDS011;4599;50.906;6.786;2023-01-09T17:36:01;8.47;;;1.70;;
9128;SDS011;4599;50.906;6.786;2023-01-09T17:40:04;4.87;;;1.80;;
9128;SDS011;4599;50.906;6.786;2023-01-09T17:44:16;7.30;;;2.20;;
9128;SDS011;4599;50.906;6.786;2023-01-09T17:48:19;5.37;;;1.83;;
9128;SDS011;4599;50.906;6.786;2023-01-09T17:52:23;11.77;;;2.00;;
9128;SDS011;4599;50.906;6.786;2023-01-09T17:56:25;5.57;;;1.90;;
9128;SDS011;4599;50.906;6.786;2023-01-09T18:00:31;7.90;;;2.00;;
9128;SDS011;4599;50.906;6.786;2023-01-09T18:04:34;7.43;;;2.03;;
9128;SDS011;4599;50.906;6.786;2023-01-09T18:08:38;5.73;;;1.63;;
9128;SDS011;4599;50.906;6.786;2023-01-09T18:12:40;8.03;;;2.00;;
9128;SDS011;4599;50.906;6.786;2023-01-09T18:16:41;9.27;;;2.17;;
9128;SDS011;4599;50.906;6.786;2023-01-09T18:20:43;7.33;;;1.73;;
9128;SDS011;4599;50.906;6.786;2023-01-09T18:24:46;6.70;;;2.07;;
9128;SDS011;4599;50.906;6.786;2023-01-09T18:28:48;7.03;;;1.60;;
9128;SDS011;4599;50.906;6.786;2023-01-09T18:32:51;7.97;;;1.83;;
9128;SDS011;4599;50.906;6.786;2023-01-09T18:36:53;5.77;;;1.80;;
9128;SDS011;4599;50.906;6.786;2023-01-09T18:40:58;4.23;;;1.90;;
9128;SDS011;4599;50.906;6.786;2023-01-09T18:44:59;8.97;;;2.20;;
9128;SDS011;4599;50.906;6.786;2023-01-09T18:49:02;3.83;;;1.50;;
9128;SDS011;4599;50.906;6.786;2023-01-09T18:53:04;6.33;;;2.13;;
9128;SDS011;4599;50.906;6.786;2023-01-09T18:57:07;7.33;;;2.10;;
9128;SDS011;4599;50.906;6.786;2023-01-09T19:01:08;10.97;;;2.37;;
9128;SDS011;4599;50.906;6.786;2023-01-09T19:05:12;7.20;;;2.57;;
9128;SDS011;4599;50.906;6.786;2023-01-09T19:09:14;7.83;;;2.10;;
9128;SDS011;4599;50.906;6.786;2023-01-09T19:13:17;5.77;;;2.40;;
9128;SDS011;4599;50.906;6.786;2023-01-09T19:17:18;4.23;;;2.43;;
9128;SDS011;4599;50.906;6.786;2023-01-09T19:21:20;10.47;;;2.80;;
9128;SDS011;4599;50.906;6.786;2023-01-09T19:25:23;9.00;;;2.70;;
9128;SDS011;4599;50.906;6.786;2023-01-09T19:29:26;8.20;;;3.20;;
9128;SDS011;4599;50.906;6.786;2023-01-09T19:33:27;8.60;;;3.13;;
9128;SDS011;4599;50.906;6.786;2023-01-09T19:37:29;9.17;;;3.30;;
9128;SDS011;4599;50.906;6.786;2023-01-09T19:41:30;9.03;;;2.97;;
9128;SDS011;4599;50.906;6.786;2023-01-09T19:45:33;9.17;;;3.20;;
9128;SDS011;4599;50.906;6.786;2023-01-09T19:49:35;7.40;;;2.70;;
9128;SDS011;4599;50.906;6.786;2023-01-09T19:53:37;6.20;;;2.67;;
9128;SDS011;4599;50.906;6.786;2023-01-09T19:57:39;5.13;;;2.90;;
9128;SDS011;4599;50.906;6.786;2023-01-09T20:01:42;6.50;;;3.03;;
9128;SDS011;4599;50.906;6.786;2023-01-09T20:05:44;7.83;;;2.83;;
9128;SDS011;4599;50.906;6.786;2023-01-09T20:09:46;8.30;;;2.80;;
9128;SDS011;4599;50.906;6.786;2023-01-09T20:13:48;3.07;;;2.47;;
9128;SDS011;4599;50.906;6.786;2023-01-09T20:17:51;5.37;;;2.80;;
9128;SDS011;4599;50.906;6.786;2023-01-09T20:21:52;5.93;;;2.70;;
9128;SDS011;4599;50.906;6.786;2023-01-09T20:25:54;3.93;;;2.20;;
9128;SDS011;4599;50.906;6.786;2023-01-09T20:29:57;4.83;;;2.20;;
9128;SDS011;4599;50.906;6.786;2023-01-09T20:34:00;6.83;;;2.60;;
9128;SDS011;4599;50.906;6.786;2023-01-09T20:38:01;3.80;;;2.20;;
9128;SDS011;4599;50.906;6.786;2023-01-09T20:42:03;3.20;;;2.10;;
9128;SDS011;4599;50.906;6.786;2023-01-09T20:46:05;6.50;;;2.10;;
9128;SDS011;4599;50.906;6.786;2023-01-09T20:50:09;4.10;;;1.80;;
9128;SDS011;4599;50.906;6.786;2023-01-09T20:54:12;4.40;;;1.80;;
9128;SDS011;4599;50.906;6.786;2023-01-09T20:58:13;5.13;;;1.50;;
9128;SDS011;4599;50.906;6.786;2023-01-09T21:02:15;6.00;;;1.80;;
9128;SDS011;4599;50.906;6.786;2023-01-09T21:06:18;7.73;;;1.80;;
9128;SDS011;4599;50.906;6.786;2023-01-09T21:10:21;7.83;;;1.70;;
9128;SDS011;4599;50.906;6.786;2023-01-09T21:14:23;2.80;;;1.60;;
9128;SDS011;4599;50.906;6.786;2023-01-09T21:18:24;6.23;;;1.80;;
9128;SDS011;4599;50.906;6.786;2023-01-09T21:22:27;3.33;;;1.77;;
9128;SDS011;4599;50.906;6.786;2023-01-09T21:26:31;6.27;;;1.77;;
9128;SDS011;4599;50.906;6.786;2023-01-09T21:30:33;2.70;;;1.77;;
9128;SDS011;4599;50.906;6.786;2023-01-09T21:34:35;3.27;;;1.80;;
9128;SDS011;4599;50.906;6.786;2023-01-09T21:38:37;5.97;;;2.30;;
9128;SDS011;4599;50.906;6.786;2023-01-09T21:42:39;2.77;;;2.13;;
9128;SDS011;4599;50.906;6.786;2023-01-09T21:46:40;5.93;;;2.33;;
9128;SDS011;4599;50.906;6.786;2023-01-09T21:50:42;5.27;;;2.77;;
9128;SDS011;4599;50.906;6.786;2023-01-09T21:54:45;6.60;;;3.13;;
9128;SDS011;4599;50.906;6.786;2023-01-09T21:58:46;6.00;;;3.33;;
9128;SDS011;4599;50.906;6.786;2023-01-09T22:02:48;5.50;;;2.93;;
9128;SDS011;4599;50.906;6.786;2023-01-09T22:06:49;6.53;;;2.97;;
9128;SDS011;4599;50.906;6.786;2023-01-09T22:10:55;5.60;;;3.27;;
9128;SDS011;4599;50.906;6.786;2023-01-09T22:14:56;6.13;;;3.13;;
9128;SDS011;4599;50.906;6.786;2023-01-09T22:18:58;7.43;;;3.37;;
9128;SDS011;4599;50.906;6.786;2023-01-09T22:22:59;7.40;;;3.50;;
9128;SDS011;4599;50.906;6.786;2023-01-09T22:27:02;6.13;;;3.50;;
9128;SDS011;4599;50.906;6.786;2023-01-09T22:31:06;7.07;;;3.30;;
9128;SDS011;4599;50.906;6.786;2023-01-09T22:35:08;8.17;;;3.40;;
9128;SDS011;4599;50.906;6.786;2023-01-09T22:39:10;5.47;;;3.13;;
9128;SDS011;4599;50.906;6.786;2023-01-09T22:43:14;8.17;;;3.27;;
9128;SDS011;4599;50.906;6.786;2023-01-09T22:47:15;10.20;;;3.40;;
9128;SDS011;4599;50.906;6.786;2023-01-09T22:51:18;9.50;;;3.03;;
9128;SDS011;4599;50.906;6.786;2023-01-09T22:55:20;8.33;;;3.20;;
9128;SDS011;4599;50.906;6.786;2023-01-09T22:59:23;8.50;;;3.43;;
9128;SDS011;4599;50.906;6.786;2023-01-09T23:03:25;6.53;;;3.03;;
9128;SDS011;4599;50.906;6.786;2023-01-09T23:07:27;7.07;;;3.20;;
9128;SDS011;4599;50.906;6.786;2023-01-09T23:11:29;8.10;;;3.60;;
9128;SDS011;4599;50.906;6.786;2023-01-09T23:15:32;12.17;;;3.07;;
9128;SDS011;4599;50.906;6.786;2023-01-09T23:19:34;7.93;;;3.33;;
9128;SDS011;4599;50.906;6.786;2023-01-09T23:23:36;6.90;;;3.10;;
9128;SDS011;4599;50.906;6.786;2023-01-09T23:27:37;10.17;;;3.50;;
9128;SDS011;4599;50.906;6.786;2023-01-09T23:31:40;7.10;;;2.60;;
9128;SDS011;4599;50.906;6.786;2023-01-09T23:35:42;8.20;;;2.77;;
9128;SDS011;4599;50.906;6.786;2023-01-09T23:39:44;8.23;;;3.07;;
9128;SDS011;4599;50.906;6.786;2023-01-09T23:43:45;7.07;;;3.00;;
9128;SDS011;4599;50.906;6.786;2023-01-09T23:47:48;10.33;;;3.20;;
9128;SDS011;4599;50.906;6.786;2023-01-09T23:51:50;9.40;;;2.67;;
9128;SDS011;4599;50.906;6.786;2023-01-09T23:55:51;5.77;;;2.60;;
9128;SDS011;4599;50.906;6.786;2023-01-09T23:59:53;10.10;;;2.83;;
